sensor_id;sensor_type;location;lat;lon;timestamp;P1;durP1;ratioP1;P2;durP2;ratioP2
70444;SDS011;57902;49.638;11.070;2022-12-07T00:01:10;9.55;;;4.38;;
70444;SDS011;57902;49.638;11.070;2022-12-07T00:03:39;10.75;;;4.35;;
70444;SDS011;57902;49.638;11.070;2022-12-07T00:06:08;10.00;;;4.50;;
70444;SDS011;57902;49.638;11.070;2022-12-07T00:08:36;9.93;;;4.28;;
70444;SDS011;57902;49.638;11.070;2022-12-07T00:11:16;9.68;;;4.65;;
70444;SDS011;57902;49.638;11.070;2022-12-07T00:13:45;10.40;;;4.57;;
70444;SDS011;57902;49.638;11.070;2022-12-07T00:16:15;9.23;;;4.40;;
70444;SDS011;57902;49.638;11.070;2022-12-07T00:18:43;10.30;;;4.95;;
70444;SDS011;57902;49.638;11.070;2022-12-07T00:21:12;10.20;;;4.43;;
70444;SDS011;57902;49.638;11.070;2022-12-07T00:23:40;10.38;;;4.82;;
70444;SDS011;57902;49.638;11.070;2022-12-07T00:26:09;12.32;;;4.93;;
70444;SDS011;57902;49.638;11.070;2022-12-07T00:28:37;10.55;;;4.82;;
70444;SDS011;57902;49.638;11.070;2022-12-07T00:31:08;9.00;;;4.43;;
70444;SDS011;57902;49.638;11.070;2022-12-07T00:33:37;9.50;;;4.40;;
70444;SDS011;57902;49.638;11.070;2022-12-07T00:36:05;9.13;;;4.25;;
70444;SDS011;57902;49.638;11.070;2022-12-07T00:38:34;10.32;;;4.97;;
70444;SDS011;57902;49.638;11.070;2022-12-07T00:41:03;10.38;;;4.53;;
70444;SDS011;57902;49.638;11.070;2022-12-07T00:43:31;10.98;;;4.68;;
70444;SDS011;57902;49.638;11.070;2022-12-07T00:45:58;11.27;;;4.75;;
70444;SDS011;57902;49.638;11.070;2022-12-07T00:48:25;10.13;;;4.85;;
70444;SDS011;57902;49.638;11.070;2022-12-07T00:50:52;12.40;;;4.93;;
70444;SDS011;57902;49.638;11.070;2022-12-07T00:53:18;11.20;;;5.05;;
70444;SDS011;57902;49.638;11.070;2022-12-07T00:55:45;9.90;;;4.47;;
70444;SDS011;57902;49.638;11.070;2022-12-07T00:58:12;12.35;;;5.32;;
70444;SDS011;57902;49.638;11.070;2022-12-07T01:00:39;11.57;;;4.95;;
70444;SDS011;57902;49.638;11.070;2022-12-07T01:03:08;13.57;;;5.43;;
70444;SDS011;57902;49.638;11.070;2022-12-07T01:08:03;12.80;;;4.68;;
70444;SDS011;57902;49.638;11.070;2022-12-07T01:10:30;11.57;;;5.35;;
70444;SDS011;57902;49.638;11.070;2022-12-07T01:12:57;9.18;;;4.85;;
70444;SDS011;57902;49.638;11.070;2022-12-07T01:15:25;10.60;;;4.90;;
70444;SDS011;57902;49.638;11.070;2022-12-07T01:17:52;12.98;;;4.47;;
70444;SDS011;57902;49.638;11.070;2022-12-07T01:20:18;11.43;;;5.47;;
70444;SDS011;57902;49.638;11.070;2022-12-07T01:22:45;12.57;;;5.18;;
70444;SDS011;57902;49.638;11.070;2022-12-07T01:25:11;9.93;;;4.68;;
70444;SDS011;57902;49.638;11.070;2022-12-07T01:27:38;11.23;;;4.82;;
70444;SDS011;57902;49.638;11.070;2022-12-07T01:30:05;10.60;;;5.15;;
70444;SDS011;57902;49.638;11.070;2022-12-07T01:32:33;10.82;;;5.07;;
70444;SDS011;57902;49.638;11.070;2022-12-07T01:34:59;11.27;;;4.82;;
70444;SDS011;57902;49.638;11.070;2022-12-07T01:37:26;11.68;;;4.75;;
70444;SDS011;57902;49.638;11.070;2022-12-07T01:39:52;12.45;;;5.07;;
70444;SDS011;57902;49.638;11.070;2022-12-07T01:42:19;10.40;;;4.95;;
70444;SDS011;57902;49.638;11.070;2022-12-07T01:47:53;10.45;;;5.05;;
70444;SDS011;57902;49.638;11.070;2022-12-07T01:50:24;11.77;;;5.35;;
70444;SDS011;57902;49.638;11.070;2022-12-07T01:52:53;12.02;;;5.38;;
70444;SDS011;57902;49.638;11.070;2022-12-07T01:55:21;11.27;;;5.18;;
70444;SDS011;57902;49.638;11.070;2022-12-07T01:57:49;11.80;;;5.25;;
70444;SDS011;57902;49.638;11.070;2022-12-07T02:00:18;12.38;;;5.15;;
70444;SDS011;57902;49.638;11.070;2022-12-07T02:02:51;12.15;;;5.22;;
70444;SDS011;57902;49.638;11.070;2022-12-07T02:05:22;11.55;;;5.30;;
70444;SDS011;57902;49.638;11.070;2022-12-07T02:07:51;13.55;;;5.72;;
70444;SDS011;57902;49.638;11.070;2022-12-07T02:10:25;10.38;;;4.72;;
70444;SDS011;57902;49.638;11.070;2022-12-07T02:13:15;12.48;;;5.03;;
70444;SDS011;57902;49.638;11.070;2022-12-07T02:18:54;10.02;;;4.90;;
70444;SDS011;57902;49.638;11.070;2022-12-07T02:29:38;10.23;;;4.80;;
70444;SDS011;57902;49.638;11.070;2022-12-07T02:32:16;15.43;;;4.97;;
70444;SDS011;57902;49.638;11.070;2022-12-07T02:34:51;12.02;;;4.97;;
70444;SDS011;57902;49.638;11.070;2022-12-07T02:39:55;11.63;;;4.95;;
70444;SDS011;57902;49.638;11.070;2022-12-07T02:42:32;11.45;;;5.28;;
70444;SDS011;57902;49.638;11.070;2022-12-07T02:45:04;11.45;;;5.25;;
70444;SDS011;57902;49.638;11.070;2022-12-07T02:47:33;12.50;;;5.45;;
70444;SDS011;57902;49.638;11.070;2022-12-07T02:50:03;13.25;;;5.95;;
70444;SDS011;57902;49.638;11.070;2022-12-07T02:52:31;15.20;;;5.88;;
70444;SDS011;57902;49.638;11.070;2022-12-07T02:54:57;15.93;;;5.63;;
70444;SDS011;57902;49.638;11.070;2022-12-07T02:57:32;16.45;;;5.85;;
70444;SDS011;57902;49.638;11.070;2022-12-07T03:00:11;15.20;;;5.30;;
70444;SDS011;57902;49.638;11.070;2022-12-07T03:19:25;14.30;;;5.88;;
70444;SDS011;57902;49.638;11.070;2022-12-07T03:21:46;13.50;;;5.60;;
70444;SDS011;57902;49.638;11.070;2022-12-07T03:24:22;14.63;;;5.75;;
70444;SDS011;57902;49.638;11.070;2022-12-07T03:26:55;13.70;;;5.70;;
70444;SDS011;57902;49.638;11.070;2022-12-07T03:29:56;14.18;;;6.10;;
70444;SDS011;57902;49.638;11.070;2022-12-07T03:32:33;18.77;;;6.53;;
70444;SDS011;57902;49.638;11.070;2022-12-07T03:40:18;13.85;;;6.20;;
70444;SDS011;57902;49.638;11.070;2022-12-07T03:42:50;15.63;;;6.03;;
70444;SDS011;57902;49.638;11.070;2022-12-07T03:45:18;18.38;;;6.68;;
70444;SDS011;57902;49.638;11.070;2022-12-07T03:47:51;16.63;;;6.10;;
70444;SDS011;57902;49.638;11.070;2022-12-07T03:50:32;16.02;;;6.43;;
70444;SDS011;57902;49.638;11.070;2022-12-07T03:53:20;19.63;;;6.10;;
70444;SDS011;57902;49.638;11.070;2022-12-07T03:55:55;15.27;;;6.53;;
70444;SDS011;57902;49.638;11.070;2022-12-07T03:58:24;13.35;;;5.85;;
70444;SDS011;57902;49.638;11.070;2022-12-07T04:00:51;11.45;;;5.82;;
70444;SDS011;57902;49.638;11.070;2022-12-07T04:03:18;14.80;;;6.05;;
70444;SDS011;57902;49.638;11.070;2022-12-07T04:05:44;19.95;;;6.30;;
70444;SDS011;57902;49.638;11.070;2022-12-07T04:08:11;16.70;;;5.75;;
70444;SDS011;57902;49.638;11.070;2022-12-07T04:10:38;13.75;;;5.70;;
70444;SDS011;57902;49.638;11.070;2022-12-07T04:13:05;16.20;;;5.93;;
70444;SDS011;57902;49.638;11.070;2022-12-07T04:15:31;14.25;;;6.43;;
70444;SDS011;57902;49.638;11.070;2022-12-07T04:17:57;18.98;;;6.13;;
70444;SDS011;57902;49.638;11.070;2022-12-07T04:20:24;16.08;;;7.03;;
70444;SDS011;57902;49.638;11.070;2022-12-07T04:22:51;21.10;;;8.82;;
70444;SDS011;57902;49.638;11.070;2022-12-07T04:25:17;24.15;;;11.38;;
70444;SDS011;57902;49.638;11.070;2022-12-07T04:27:44;27.45;;;8.30;;
70444;SDS011;57902;49.638;11.070;2022-12-07T04:30:10;15.40;;;6.57;;
70444;SDS011;57902;49.638;11.070;2022-12-07T04:32:37;18.17;;;6.72;;
70444;SDS011;57902;49.638;11.070;2022-12-07T04:35:07;16.48;;;6.75;;
70444;SDS011;57902;49.638;11.070;2022-12-07T04:37:34;20.05;;;7.47;;
70444;SDS011;57902;49.638;11.070;2022-12-07T04:40:00;18.10;;;7.03;;
70444;SDS011;57902;49.638;11.070;2022-12-07T04:42:27;18.10;;;6.70;;
70444;SDS011;57902;49.638;11.070;2022-12-07T04:44:53;18.70;;;6.95;;
70444;SDS011;57902;49.638;11.070;2022-12-07T04:47:20;17.77;;;7.30;;
70444;SDS011;57902;49.638;11.070;2022-12-07T04:49:47;19.30;;;7.40;;
70444;SDS011;57902;49.638;11.070;2022-12-07T04:52:13;20.50;;;7.28;;
70444;SDS011;57902;49.638;11.070;2022-12-07T04:54:39;16.85;;;6.97;;
70444;SDS011;57902;49.638;11.070;2022-12-07T04:57:06;17.40;;;6.70;;
70444;SDS011;57902;49.638;11.070;2022-12-07T04:59:32;21.27;;;7.22;;
70444;SDS011;57902;49.638;11.070;2022-12-07T05:01:59;19.80;;;7.20;;
70444;SDS011;57902;49.638;11.070;2022-12-07T05:04:25;22.30;;;8.23;;
70444;SDS011;57902;49.638;11.070;2022-12-07T05:06:51;20.50;;;7.78;;
70444;SDS011;57902;49.638;11.070;2022-12-07T05:09:18;19.00;;;7.47;;
70444;SDS011;57902;49.638;11.070;2022-12-07T05:11:44;17.52;;;6.88;;
70444;SDS011;57902;49.638;11.070;2022-12-07T05:14:18;20.77;;;8.15;;
70444;SDS011;57902;49.638;11.070;2022-12-07T05:16:47;18.65;;;7.70;;
70444;SDS011;57902;49.638;11.070;2022-12-07T05:19:16;24.65;;;7.53;;
70444;SDS011;57902;49.638;11.070;2022-12-07T05:21:43;22.90;;;7.28;;
70444;SDS011;57902;49.638;11.070;2022-12-07T05:24:11;19.83;;;7.57;;
70444;SDS011;57902;49.638;11.070;2022-12-07T05:26:39;19.50;;;8.45;;
70444;SDS011;57902;49.638;11.070;2022-12-07T05:29:05;18.83;;;7.82;;
70444;SDS011;57902;49.638;11.070;2022-12-07T05:31:32;21.52;;;8.10;;
70444;SDS011;57902;49.638;11.070;2022-12-07T05:34:00;19.48;;;7.68;;
70444;SDS011;57902;49.638;11.070;2022-12-07T05:36:27;17.67;;;7.30;;
70444;SDS011;57902;49.638;11.070;2022-12-07T05:38:54;18.67;;;7.20;;
70444;SDS011;57902;49.638;11.070;2022-12-07T05:41:21;22.20;;;8.43;;
70444;SDS011;57902;49.638;11.070;2022-12-07T05:44:06;19.95;;;8.02;;
70444;SDS011;57902;49.638;11.070;2022-12-07T05:46:33;20.63;;;7.93;;
70444;SDS011;57902;49.638;11.070;2022-12-07T05:49:00;22.33;;;8.27;;
70444;SDS011;57902;49.638;11.070;2022-12-07T05:51:27;21.17;;;8.25;;
70444;SDS011;57902;49.638;11.070;2022-12-07T05:53:54;23.38;;;8.48;;
70444;SDS011;57902;49.638;11.070;2022-12-07T05:56:20;19.88;;;7.80;;
70444;SDS011;57902;49.638;11.070;2022-12-07T05:58:47;21.02;;;8.10;;
70444;SDS011;57902;49.638;11.070;2022-12-07T06:01:32;20.83;;;7.38;;
70444;SDS011;57902;49.638;11.070;2022-12-07T06:03:59;19.50;;;8.05;;
70444;SDS011;57902;49.638;11.070;2022-12-07T06:06:25;17.05;;;6.93;;
70444;SDS011;57902;49.638;11.070;2022-12-07T06:08:52;22.80;;;8.48;;
70444;SDS011;57902;49.638;11.070;2022-12-07T06:11:18;23.13;;;9.05;;
70444;SDS011;57902;49.638;11.070;2022-12-07T06:14:03;21.98;;;8.27;;
70444;SDS011;57902;49.638;11.070;2022-12-07T06:16:30;22.42;;;8.02;;
70444;SDS011;57902;49.638;11.070;2022-12-07T06:18:56;21.38;;;8.85;;
70444;SDS011;57902;49.638;11.070;2022-12-07T06:21:23;23.27;;;8.35;;
70444;SDS011;57902;49.638;11.070;2022-12-07T06:23:51;23.65;;;8.07;;
70444;SDS011;57902;49.638;11.070;2022-12-07T06:26:18;19.25;;;7.35;;
70444;SDS011;57902;49.638;11.070;2022-12-07T06:28:45;19.35;;;7.85;;
70444;SDS011;57902;49.638;11.070;2022-12-07T06:31:11;21.38;;;8.25;;
70444;SDS011;57902;49.638;11.070;2022-12-07T06:33:39;21.42;;;8.80;;
70444;SDS011;57902;49.638;11.070;2022-12-07T06:36:07;20.35;;;8.27;;
70444;SDS011;57902;49.638;11.070;2022-12-07T06:38:33;19.60;;;7.80;;
70444;SDS011;57902;49.638;11.070;2022-12-07T06:41:00;20.80;;;7.32;;
70444;SDS011;57902;49.638;11.070;2022-12-07T06:43:26;23.65;;;8.02;;
70444;SDS011;57902;49.638;11.070;2022-12-07T06:45:53;18.92;;;6.78;;
70444;SDS011;57902;49.638;11.070;2022-12-07T06:48:20;23.98;;;7.07;;
70444;SDS011;57902;49.638;11.070;2022-12-07T06:50:47;16.85;;;6.82;;
70444;SDS011;57902;49.638;11.070;2022-12-07T06:53:19;18.20;;;6.10;;
70444;SDS011;57902;49.638;11.070;2022-12-07T06:55:46;15.63;;;6.85;;
70444;SDS011;57902;49.638;11.070;2022-12-07T06:58:12;18.65;;;6.10;;
70444;SDS011;57902;49.638;11.070;2022-12-07T07:00:39;20.48;;;6.50;;
70444;SDS011;57902;49.638;11.070;2022-12-07T07:03:05;16.92;;;6.13;;
70444;SDS011;57902;49.638;11.070;2022-12-07T07:05:32;16.80;;;6.63;;
70444;SDS011;57902;49.638;11.070;2022-12-07T07:07:58;16.27;;;6.15;;
70444;SDS011;57902;49.638;11.070;2022-12-07T07:10:44;16.63;;;6.35;;
70444;SDS011;57902;49.638;11.070;2022-12-07T07:13:11;17.63;;;6.78;;
70444;SDS011;57902;49.638;11.070;2022-12-07T07:15:38;19.77;;;7.10;;
70444;SDS011;57902;49.638;11.070;2022-12-07T07:18:05;14.95;;;6.43;;
70444;SDS011;57902;49.638;11.070;2022-12-07T07:20:33;21.30;;;7.63;;
70444;SDS011;57902;49.638;11.070;2022-12-07T07:23:00;17.23;;;7.00;;
70444;SDS011;57902;49.638;11.070;2022-12-07T07:25:26;20.45;;;7.97;;
70444;SDS011;57902;49.638;11.070;2022-12-07T07:27:53;22.00;;;7.13;;
70444;SDS011;57902;49.638;11.070;2022-12-07T07:30:19;21.13;;;7.20;;
70444;SDS011;57902;49.638;11.070;2022-12-07T07:32:46;21.08;;;7.72;;
70444;SDS011;57902;49.638;11.070;2022-12-07T07:35:13;19.23;;;7.07;;
70444;SDS011;57902;49.638;11.070;2022-12-07T07:37:40;19.13;;;7.82;;
70444;SDS011;57902;49.638;11.070;2022-12-07T07:40:07;19.08;;;7.13;;
70444;SDS011;57902;49.638;11.070;2022-12-07T07:42:35;19.58;;;7.32;;
70444;SDS011;57902;49.638;11.070;2022-12-07T07:45:01;21.35;;;7.13;;
70444;SDS011;57902;49.638;11.070;2022-12-07T07:47:28;19.30;;;7.03;;
70444;SDS011;57902;49.638;11.070;2022-12-07T07:49:55;20.00;;;6.93;;
70444;SDS011;57902;49.638;11.070;2022-12-07T07:52:22;19.10;;;7.20;;
70444;SDS011;57902;49.638;11.070;2022-12-07T07:54:48;18.95;;;7.15;;
70444;SDS011;57902;49.638;11.070;2022-12-07T07:57:16;20.25;;;6.95;;
70444;SDS011;57902;49.638;11.070;2022-12-07T07:59:43;20.63;;;7.80;;
70444;SDS011;57902;49.638;11.070;2022-12-07T08:02:13;18.23;;;7.18;;
70444;SDS011;57902;49.638;11.070;2022-12-07T08:04:44;19.60;;;7.85;;
70444;SDS011;57902;49.638;11.070;2022-12-07T08:07:11;18.08;;;7.05;;
70444;SDS011;57902;49.638;11.070;2022-12-07T08:09:38;21.50;;;8.63;;
70444;SDS011;57902;49.638;11.070;2022-12-07T08:12:05;19.25;;;7.05;;
70444;SDS011;57902;49.638;11.070;2022-12-07T08:14:32;20.15;;;7.75;;
70444;SDS011;57902;49.638;11.070;2022-12-07T08:16:59;20.20;;;7.28;;
70444;SDS011;57902;49.638;11.070;2022-12-07T08:19:25;18.88;;;6.80;;
70444;SDS011;57902;49.638;11.070;2022-12-07T08:21:52;19.67;;;7.35;;
70444;SDS011;57902;49.638;11.070;2022-12-07T08:24:18;18.90;;;6.90;;
70444;SDS011;57902;49.638;11.070;2022-12-07T08:26:45;21.67;;;7.50;;
70444;SDS011;57902;49.638;11.070;2022-12-07T08:29:11;19.30;;;7.05;;
70444;SDS011;57902;49.638;11.070;2022-12-07T08:31:38;20.20;;;6.93;;
70444;SDS011;57902;49.638;11.070;2022-12-07T08:34:04;20.23;;;7.40;;
70444;SDS011;57902;49.638;11.070;2022-12-07T08:36:31;17.48;;;7.38;;
70444;SDS011;57902;49.638;11.070;2022-12-07T08:38:57;20.50;;;7.57;;
70444;SDS011;57902;49.638;11.070;2022-12-07T08:41:44;20.15;;;7.43;;
70444;SDS011;57902;49.638;11.070;2022-12-07T08:44:10;17.40;;;6.43;;
70444;SDS011;57902;49.638;11.070;2022-12-07T08:46:38;20.58;;;8.20;;
70444;SDS011;57902;49.638;11.070;2022-12-07T08:49:13;18.50;;;7.25;;
70444;SDS011;57902;49.638;11.070;2022-12-07T08:51:46;20.38;;;7.85;;
70444;SDS011;57902;49.638;11.070;2022-12-07T08:54:14;21.20;;;7.15;;
70444;SDS011;57902;49.638;11.070;2022-12-07T08:56:44;18.42;;;7.15;;
70444;SDS011;57902;49.638;11.070;2022-12-07T08:59:12;22.55;;;7.22;;
70444;SDS011;57902;49.638;11.070;2022-12-07T09:01:42;15.80;;;6.28;;
70444;SDS011;57902;49.638;11.070;2022-12-07T09:04:09;17.48;;;6.78;;
70444;SDS011;57902;49.638;11.070;2022-12-07T09:06:35;20.10;;;7.13;;
70444;SDS011;57902;49.638;11.070;2022-12-07T09:09:02;17.85;;;6.43;;
70444;SDS011;57902;49.638;11.070;2022-12-07T09:11:29;17.58;;;6.57;;
70444;SDS011;57902;49.638;11.070;2022-12-07T09:13:55;18.23;;;6.45;;
70444;SDS011;57902;49.638;11.070;2022-12-07T09:16:22;15.60;;;5.88;;
70444;SDS011;57902;49.638;11.070;2022-12-07T09:18:49;16.17;;;5.90;;
70444;SDS011;57902;49.638;11.070;2022-12-07T09:21:15;16.55;;;6.53;;
70444;SDS011;57902;49.638;11.070;2022-12-07T09:23:42;22.10;;;7.07;;
70444;SDS011;57902;49.638;11.070;2022-12-07T09:26:08;19.38;;;7.03;;
70444;SDS011;57902;49.638;11.070;2022-12-07T09:28:36;19.25;;;6.78;;
70444;SDS011;57902;49.638;11.070;2022-12-07T09:31:03;16.05;;;6.40;;
70444;SDS011;57902;49.638;11.070;2022-12-07T09:33:54;18.90;;;6.45;;
70444;SDS011;57902;49.638;11.070;2022-12-07T09:36:25;16.55;;;6.53;;
70444;SDS011;57902;49.638;11.070;2022-12-07T09:38:52;18.20;;;6.78;;
70444;SDS011;57902;49.638;11.070;2022-12-07T09:41:18;17.00;;;6.03;;
70444;SDS011;57902;49.638;11.070;2022-12-07T09:43:46;15.38;;;6.40;;
70444;SDS011;57902;49.638;11.070;2022-12-07T09:46:13;15.95;;;6.35;;
70444;SDS011;57902;49.638;11.070;2022-12-07T09:48:43;16.55;;;5.95;;
70444;SDS011;57902;49.638;11.070;2022-12-07T09:51:18;16.20;;;6.20;;
70444;SDS011;57902;49.638;11.070;2022-12-07T09:53:51;19.60;;;6.47;;
70444;SDS011;57902;49.638;11.070;2022-12-07T09:56:19;17.20;;;6.50;;
70444;SDS011;57902;49.638;11.070;2022-12-07T09:58:47;19.15;;;6.28;;
70444;SDS011;57902;49.638;11.070;2022-12-07T10:03:59;17.02;;;7.25;;
70444;SDS011;57902;49.638;11.070;2022-12-07T10:06:32;20.05;;;6.20;;
70444;SDS011;57902;49.638;11.070;2022-12-07T10:08:59;16.83;;;6.32;;
70444;SDS011;57902;49.638;11.070;2022-12-07T10:11:25;18.58;;;6.82;;
70444;SDS011;57902;49.638;11.070;2022-12-07T10:13:52;16.83;;;6.40;;
70444;SDS011;57902;49.638;11.070;2022-12-07T10:19:24;19.45;;;7.03;;
70444;SDS011;57902;49.638;11.070;2022-12-07T10:21:59;18.27;;;7.20;;
70444;SDS011;57902;49.638;11.070;2022-12-07T10:24:27;23.15;;;6.75;;
70444;SDS011;57902;49.638;11.070;2022-12-07T10:26:54;25.63;;;7.93;;
70444;SDS011;57902;49.638;11.070;2022-12-07T10:29:22;16.38;;;6.30;;
70444;SDS011;57902;49.638;11.070;2022-12-07T10:31:52;16.95;;;6.63;;
70444;SDS011;57902;49.638;11.070;2022-12-07T10:34:24;18.58;;;6.28;;
70444;SDS011;57902;49.638;11.070;2022-12-07T10:36:52;14.82;;;6.13;;
70444;SDS011;57902;49.638;11.070;2022-12-07T10:39:20;17.13;;;6.38;;
70444;SDS011;57902;49.638;11.070;2022-12-07T10:42:09;17.70;;;6.82;;
70444;SDS011;57902;49.638;11.070;2022-12-07T10:44:50;16.98;;;6.85;;
70444;SDS011;57902;49.638;11.070;2022-12-07T10:55:52;15.02;;;6.00;;
70444;SDS011;57902;49.638;11.070;2022-12-07T11:10:30;17.08;;;6.90;;
70444;SDS011;57902;49.638;11.070;2022-12-07T11:24:02;19.50;;;6.72;;
70444;SDS011;57902;49.638;11.070;2022-12-07T11:26:54;17.15;;;6.43;;
70444;SDS011;57902;49.638;11.070;2022-12-07T11:37:39;16.40;;;6.40;;
70444;SDS011;57902;49.638;11.070;2022-12-07T11:42:46;17.83;;;6.85;;
70444;SDS011;57902;49.638;11.070;2022-12-07T11:45:23;19.13;;;6.90;;
70444;SDS011;57902;49.638;11.070;2022-12-07T11:47:54;20.60;;;7.15;;
70444;SDS011;57902;49.638;11.070;2022-12-07T11:50:26;17.27;;;7.03;;
70444;SDS011;57902;49.638;11.070;2022-12-07T11:53:02;17.38;;;6.75;;
70444;SDS011;57902;49.638;11.070;2022-12-07T12:00:48;22.60;;;6.97;;
70444;SDS011;57902;49.638;11.070;2022-12-07T12:03:21;15.98;;;6.70;;
70444;SDS011;57902;49.638;11.070;2022-12-07T12:05:56;18.30;;;6.80;;
70444;SDS011;57902;49.638;11.070;2022-12-07T12:08:26;19.83;;;7.35;;
70444;SDS011;57902;49.638;11.070;2022-12-07T12:22:46;17.17;;;5.72;;
70444;SDS011;57902;49.638;11.070;2022-12-07T12:25:23;14.15;;;6.40;;
70444;SDS011;57902;49.638;11.070;2022-12-07T12:27:54;15.40;;;6.35;;
70444;SDS011;57902;49.638;11.070;2022-12-07T12:30:25;16.00;;;6.90;;
70444;SDS011;57902;49.638;11.070;2022-12-07T12:39:13;14.73;;;6.45;;
70444;SDS011;57902;49.638;11.070;2022-12-07T12:46:51;17.60;;;6.55;;
70444;SDS011;57902;49.638;11.070;2022-12-07T12:54:27;14.38;;;6.07;;
70444;SDS011;57902;49.638;11.070;2022-12-07T12:57:13;15.50;;;5.80;;
70444;SDS011;57902;49.638;11.070;2022-12-07T13:02:27;15.55;;;6.10;;
70444;SDS011;57902;49.638;11.070;2022-12-07T13:10:29;13.93;;;5.13;;
70444;SDS011;57902;49.638;11.070;2022-12-07T13:15:38;13.27;;;5.32;;
70444;SDS011;57902;49.638;11.070;2022-12-07T13:31:44;18.48;;;5.63;;
70444;SDS011;57902;49.638;11.070;2022-12-07T13:34:34;15.80;;;6.28;;
70444;SDS011;57902;49.638;11.070;2022-12-07T13:40:19;41.90;;;12.02;;
70444;SDS011;57902;49.638;11.070;2022-12-07T13:42:47;26.17;;;8.25;;
70444;SDS011;57902;49.638;11.070;2022-12-07T13:45:20;11.80;;;4.95;;
70444;SDS011;57902;49.638;11.070;2022-12-07T13:48:11;25.83;;;8.23;;
70444;SDS011;57902;49.638;11.070;2022-12-07T13:50:42;15.43;;;6.22;;
70444;SDS011;57902;49.638;11.070;2022-12-07T13:53:11;13.40;;;5.25;;
70444;SDS011;57902;49.638;11.070;2022-12-07T13:55:44;30.38;;;9.07;;
70444;SDS011;57902;49.638;11.070;2022-12-07T13:58:19;45.25;;;13.27;;
70444;SDS011;57902;49.638;11.070;2022-12-07T14:00:45;19.80;;;7.63;;
70444;SDS011;57902;49.638;11.070;2022-12-07T14:05:39;15.25;;;5.25;;
70444;SDS011;57902;49.638;11.070;2022-12-07T14:15:51;12.38;;;5.18;;
70444;SDS011;57902;49.638;11.070;2022-12-07T14:18:28;15.45;;;4.80;;
70444;SDS011;57902;49.638;11.070;2022-12-07T14:23:35;14.07;;;5.65;;
70444;SDS011;57902;49.638;11.070;2022-12-07T14:28:51;11.43;;;4.25;;
70444;SDS011;57902;49.638;11.070;2022-12-07T14:31:18;10.85;;;4.47;;
70444;SDS011;57902;49.638;11.070;2022-12-07T14:33:58;11.98;;;4.55;;
70444;SDS011;57902;49.638;11.070;2022-12-07T14:36:25;13.35;;;4.38;;
70444;SDS011;57902;49.638;11.070;2022-12-07T14:38:52;12.18;;;4.80;;
70444;SDS011;57902;49.638;11.070;2022-12-07T14:41:22;10.73;;;4.30;;
70444;SDS011;57902;49.638;11.070;2022-12-07T14:44:11;12.68;;;4.70;;
70444;SDS011;57902;49.638;11.070;2022-12-07T14:46:58;11.40;;;4.18;;
70444;SDS011;57902;49.638;11.070;2022-12-07T14:49:44;10.38;;;4.30;;
70444;SDS011;57902;49.638;11.070;2022-12-07T14:52:18;11.93;;;5.57;;
70444;SDS011;57902;49.638;11.070;2022-12-07T14:55:25;11.55;;;4.75;;
70444;SDS011;57902;49.638;11.070;2022-12-07T14:57:57;12.13;;;4.43;;
70444;SDS011;57902;49.638;11.070;2022-12-07T15:00:25;15.38;;;5.30;;
70444;SDS011;57902;49.638;11.070;2022-12-07T15:02:54;18.42;;;5.70;;
70444;SDS011;57902;49.638;11.070;2022-12-07T15:05:20;12.98;;;5.22;;
70444;SDS011;57902;49.638;11.070;2022-12-07T15:07:48;14.02;;;5.20;;
70444;SDS011;57902;49.638;11.070;2022-12-07T15:10:35;10.48;;;4.80;;
70444;SDS011;57902;49.638;11.070;2022-12-07T15:13:04;11.00;;;4.68;;
70444;SDS011;57902;49.638;11.070;2022-12-07T15:15:50;12.35;;;4.97;;
70444;SDS011;57902;49.638;11.070;2022-12-07T15:18:19;10.80;;;4.60;;
70444;SDS011;57902;49.638;11.070;2022-12-07T15:20:46;14.38;;;6.38;;
70444;SDS011;57902;49.638;11.070;2022-12-07T15:23:13;13.85;;;4.40;;
70444;SDS011;57902;49.638;11.070;2022-12-07T15:25:40;8.82;;;3.95;;
70444;SDS011;57902;49.638;11.070;2022-12-07T15:28:10;9.48;;;3.85;;
70444;SDS011;57902;49.638;11.070;2022-12-07T15:30:38;13.60;;;5.03;;
70444;SDS011;57902;49.638;11.070;2022-12-07T15:33:05;13.20;;;4.80;;
70444;SDS011;57902;49.638;11.070;2022-12-07T15:35:31;9.60;;;4.10;;
70444;SDS011;57902;49.638;11.070;2022-12-07T15:37:59;11.65;;;4.82;;
70444;SDS011;57902;49.638;11.070;2022-12-07T15:40:26;10.73;;;4.25;;
70444;SDS011;57902;49.638;11.070;2022-12-07T15:42:52;10.52;;;4.00;;
70444;SDS011;57902;49.638;11.070;2022-12-07T15:45:18;11.57;;;4.30;;
70444;SDS011;57902;49.638;11.070;2022-12-07T15:47:45;9.57;;;4.07;;
70444;SDS011;57902;49.638;11.070;2022-12-07T15:50:31;13.18;;;4.70;;
70444;SDS011;57902;49.638;11.070;2022-12-07T15:52:58;11.68;;;4.20;;
70444;SDS011;57902;49.638;11.070;2022-12-07T15:55:24;28.13;;;8.10;;
70444;SDS011;57902;49.638;11.070;2022-12-07T15:57:50;23.48;;;7.82;;
70444;SDS011;57902;49.638;11.070;2022-12-07T16:00:17;22.88;;;8.25;;
70444;SDS011;57902;49.638;11.070;2022-12-07T16:02:44;28.00;;;9.30;;
70444;SDS011;57902;49.638;11.070;2022-12-07T16:05:11;20.27;;;7.55;;
70444;SDS011;57902;49.638;11.070;2022-12-07T16:07:37;16.95;;;6.50;;
70444;SDS011;57902;49.638;11.070;2022-12-07T16:10:04;15.50;;;5.72;;
70444;SDS011;57902;49.638;11.070;2022-12-07T16:12:31;17.55;;;6.03;;
70444;SDS011;57902;49.638;11.070;2022-12-07T16:14:57;13.88;;;5.05;;
70444;SDS011;57902;49.638;11.070;2022-12-07T16:17:25;17.08;;;6.63;;
70444;SDS011;57902;49.638;11.070;2022-12-07T16:19:51;17.42;;;6.03;;
70444;SDS011;57902;49.638;11.070;2022-12-07T16:22:19;15.05;;;5.93;;
70444;SDS011;57902;49.638;11.070;2022-12-07T16:24:45;13.90;;;5.57;;
70444;SDS011;57902;49.638;11.070;2022-12-07T16:27:12;16.10;;;7.10;;
70444;SDS011;57902;49.638;11.070;2022-12-07T16:29:38;19.17;;;6.63;;
70444;SDS011;57902;49.638;11.070;2022-12-07T16:32:05;15.75;;;6.13;;
70444;SDS011;57902;49.638;11.070;2022-12-07T16:34:31;18.90;;;6.85;;
70444;SDS011;57902;49.638;11.070;2022-12-07T16:36:58;16.40;;;6.53;;
70444;SDS011;57902;49.638;11.070;2022-12-07T16:39:30;16.45;;;5.80;;
70444;SDS011;57902;49.638;11.070;2022-12-07T16:41:57;15.45;;;6.15;;
70444;SDS011;57902;49.638;11.070;2022-12-07T16:44:23;15.65;;;6.32;;
70444;SDS011;57902;49.638;11.070;2022-12-07T16:46:50;15.95;;;6.38;;
70444;SDS011;57902;49.638;11.070;2022-12-07T16:49:16;15.63;;;6.57;;
70444;SDS011;57902;49.638;11.070;2022-12-07T16:51:43;19.98;;;7.28;;
70444;SDS011;57902;49.638;11.070;2022-12-07T16:54:10;20.35;;;7.75;;
70444;SDS011;57902;49.638;11.070;2022-12-07T16:56:37;16.95;;;7.13;;
70444;SDS011;57902;49.638;11.070;2022-12-07T16:59:04;20.85;;;7.60;;
70444;SDS011;57902;49.638;11.070;2022-12-07T17:01:31;21.25;;;7.35;;
70444;SDS011;57902;49.638;11.070;2022-12-07T17:03:57;21.15;;;8.15;;
70444;SDS011;57902;49.638;11.070;2022-12-07T17:06:25;34.63;;;10.82;;
70444;SDS011;57902;49.638;11.070;2022-12-07T17:11:21;21.27;;;7.72;;
70444;SDS011;57902;49.638;11.070;2022-12-07T17:13:49;23.23;;;8.93;;
70444;SDS011;57902;49.638;11.070;2022-12-07T17:16:34;24.73;;;9.13;;
70444;SDS011;57902;49.638;11.070;2022-12-07T17:19:05;18.60;;;7.10;;
70444;SDS011;57902;49.638;11.070;2022-12-07T17:21:32;20.35;;;8.43;;
70444;SDS011;57902;49.638;11.070;2022-12-07T17:24:00;21.77;;;7.30;;